createdAt,value
2023-05-03T00:02:06.446Z,3.70
2023-05-03T00:04:34.292Z,3.80
2023-05-03T00:07:01.234Z,3.90
2023-05-03T00:09:28.537Z,3.90
2023-05-03T00:11:55.655Z,3.80
2023-05-03T00:14:22.920Z,3.80
2023-05-03T00:16:49.932Z,3.80
2023-05-03T00:19:30.508Z,3.80
2023-05-03T00:21:58.312Z,3.80
2023-05-03T00:24:25.609Z,3.80
2023-05-03T00:26:52.699Z,3.80
2023-05-03T00:29:22.501Z,3.90
2023-05-03T00:31:49.536Z,4.00
2023-05-03T00:34:16.720Z,4.10
2023-05-03T00:36:43.777Z,4.10
2023-05-03T00:39:11.672Z,4.10
2023-05-03T00:41:39.097Z,4.10
2023-05-03T00:44:06.721Z,4.10
2023-05-03T00:46:33.732Z,4.20
2023-05-03T00:49:01.477Z,4.20
2023-05-03T00:51:28.609Z,4.30
2023-05-03T00:53:56.484Z,4.30
2023-05-03T00:56:23.856Z,4.20
2023-05-03T00:58:51.884Z,4.20
2023-05-03T01:01:19.146Z,4.10
2023-05-03T01:03:46.954Z,4.20
2023-05-03T01:06:23.114Z,4.20
2023-05-03T01:08:50.146Z,4.20
2023-05-03T01:11:20.929Z,4.20
2023-05-03T01:13:50.956Z,4.20
2023-05-03T01:16:38.303Z,4.20
2023-05-03T01:19:09.542Z,4.20
2023-05-03T01:21:37.558Z,4.20
2023-05-03T01:24:08.468Z,4.20
2023-05-03T01:26:35.567Z,4.20
2023-05-03T01:29:02.784Z,4.30
2023-05-03T01:31:34.167Z,4.30
2023-05-03T01:34:20.298Z,4.30
2023-05-03T01:36:49.207Z,4.30
2023-05-03T01:39:23.362Z,4.30
2023-05-03T01:41:51.465Z,4.30
2023-05-03T01:44:20.518Z,4.30
2023-05-03T01:46:47.841Z,4.30
2023-05-03T01:49:15.020Z,4.30
2023-05-03T01:51:42.197Z,4.30
2023-05-03T01:54:09.325Z,4.30
2023-05-03T01:56:37.039Z,4.30
2023-05-03T01:59:04.237Z,4.20
2023-05-03T02:01:31.660Z,4.10
2023-05-03T02:03:59.523Z,4.00
2023-05-03T02:06:36.624Z,4.00
2023-05-03T02:09:13.429Z,4.00
2023-05-03T02:11:46.381Z,4.10
2023-05-03T02:15:04.906Z,4.10
2023-05-03T02:17:36.127Z,4.10
2023-05-03T02:20:10.046Z,4.10
2023-05-03T02:22:37.472Z,4.10
2023-05-03T02:25:05.483Z,4.10
2023-05-03T02:27:38.456Z,4.00
2023-05-03T02:30:06.939Z,4.00
2023-05-03T02:32:39.967Z,3.90
2023-05-03T02:35:08.694Z,3.80
2023-05-03T02:37:36.071Z,3.70
2023-05-03T02:40:09.931Z,3.70
2023-05-03T02:42:37.939Z,3.60
2023-05-03T02:45:07.528Z,3.60
2023-05-03T02:47:34.653Z,3.50
2023-05-03T02:50:01.965Z,3.40
2023-05-03T02:52:31.786Z,3.30
2023-05-03T02:54:58.851Z,3.30
2023-05-03T02:57:25.865Z,3.30
2023-05-03T02:59:53.169Z,3.20
2023-05-03T03:02:22.200Z,3.20
2023-05-03T03:04:49.269Z,3.30
2023-05-03T03:07:16.330Z,3.30
2023-05-03T03:09:43.573Z,3.40
2023-05-03T03:12:10.699Z,3.40
2023-05-03T03:14:37.960Z,3.50
2023-05-03T03:17:07.601Z,3.60
2023-05-03T03:19:35.180Z,3.70
2023-05-03T03:22:02.217Z,3.70
2023-05-03T03:24:30.796Z,3.70
2023-05-03T03:26:58.251Z,3.70
2023-05-03T03:29:26.372Z,3.60
2023-05-03T03:31:53.637Z,3.60
2023-05-03T03:34:20.944Z,3.70
2023-05-03T03:36:47.985Z,3.70
2023-05-03T03:39:16.756Z,3.70
2023-05-03T03:41:44.345Z,3.70
2023-05-03T03:44:11.390Z,3.70
2023-05-03T03:46:38.668Z,3.70
2023-05-03T03:49:06.211Z,3.60
2023-05-03T03:51:33.169Z,3.70
2023-05-03T03:54:00.583Z,3.70
2023-05-03T03:56:33.288Z,4.00
2023-05-03T03:59:01.192Z,4.20
2023-05-03T04:01:28.303Z,4.30
2023-05-03T04:03:56.629Z,4.50
2023-05-03T04:06:24.181Z,4.60
2023-05-03T04:08:51.655Z,4.70
2023-05-03T04:11:44.033Z,4.90
2023-05-03T04:14:11.300Z,5.00
2023-05-03T04:16:39.146Z,5.00
2023-05-03T04:19:07.324Z,5.10
2023-05-03T04:21:37.751Z,5.10
2023-05-03T04:24:06.909Z,5.10
2023-05-03T04:26:34.228Z,5.10
2023-05-03T04:29:08.463Z,5.10
2023-05-03T04:31:36.102Z,5.20
2023-05-03T04:34:03.133Z,5.30
2023-05-03T04:36:30.525Z,5.40
2023-05-03T04:38:58.974Z,5.50
2023-05-03T04:41:26.386Z,5.70
2023-05-03T04:43:54.617Z,5.70
2023-05-03T04:46:22.358Z,5.80
2023-05-03T04:48:51.396Z,5.90
2023-05-03T04:51:18.714Z,6.00
2023-05-03T04:53:47.111Z,6.20
2023-05-03T04:56:19.918Z,6.20
2023-05-03T04:58:47.088Z,6.30
2023-05-03T05:01:16.440Z,6.30
2023-05-03T05:03:44.038Z,6.40
2023-05-03T05:06:17.712Z,6.50
2023-05-03T05:08:45.434Z,6.80
2023-05-03T05:11:14.949Z,7.00
2023-05-03T05:13:42.160Z,7.20
2023-05-03T05:16:09.355Z,7.40
2023-05-03T05:18:37.865Z,7.40
2023-05-03T05:21:07.645Z,7.40
2023-05-03T05:23:36.397Z,7.60
2023-05-03T05:26:04.839Z,7.50
2023-05-03T05:28:33.124Z,7.50
2023-05-03T05:31:01.175Z,7.30
2023-05-03T05:33:29.251Z,7.20
2023-05-03T05:35:57.057Z,7.00
2023-05-03T05:38:24.015Z,6.70
2023-05-03T05:40:55.307Z,6.60
2023-05-03T05:43:23.178Z,6.50
2023-05-03T05:45:50.234Z,6.40
2023-05-03T05:48:18.263Z,6.40
2023-05-03T05:50:46.124Z,6.50
2023-05-03T05:53:14.706Z,6.50
2023-05-03T05:55:48.854Z,6.60
2023-05-03T05:58:16.348Z,6.80
2023-05-03T06:00:49.159Z,6.90
2023-05-03T06:03:17.770Z,7.10
2023-05-03T06:05:47.314Z,7.40
2023-05-03T06:08:14.285Z,8.00
2023-05-03T06:10:42.330Z,8.50
2023-05-03T06:13:09.686Z,9.00
2023-05-03T06:15:37.265Z,9.40
2023-05-03T06:18:04.664Z,9.70
2023-05-03T06:20:32.209Z,10.00
2023-05-03T06:22:59.692Z,10.30
2023-05-03T06:25:27.108Z,10.30
2023-05-03T06:27:54.111Z,10.30
2023-05-03T06:30:25.946Z,10.40
2023-05-03T06:32:53.556Z,10.50
2023-05-03T06:35:22.041Z,10.50
2023-05-03T06:37:49.636Z,10.50
2023-05-03T06:40:17.049Z,10.40
2023-05-03T06:42:44.486Z,10.50
2023-05-03T06:47:43.249Z,11.10
2023-05-03T06:50:11.324Z,11.50
2023-05-03T06:52:38.370Z,11.90
2023-05-03T06:55:06.182Z,12.30
2023-05-03T06:57:33.292Z,12.50
2023-05-03T07:00:00.573Z,12.60
2023-05-03T07:02:27.767Z,12.80
2023-05-03T07:04:55.057Z,13.20
2023-05-03T07:07:22.013Z,13.40
2023-05-03T07:09:49.605Z,13.30
2023-05-03T07:12:19.243Z,13.50
2023-05-03T07:14:47.519Z,13.70
2023-05-03T07:17:14.431Z,13.60
2023-05-03T07:19:41.549Z,13.50
2023-05-03T07:22:08.617Z,13.20
2023-05-03T07:24:35.685Z,12.90
2023-05-03T07:27:03.417Z,13.00
2023-05-03T07:29:30.594Z,13.10
2023-05-03T07:31:57.786Z,13.10
2023-05-03T07:34:24.863Z,12.80
2023-05-03T07:36:54.912Z,12.70
2023-05-03T07:39:21.863Z,12.60
2023-05-03T07:41:49.270Z,12.70
2023-05-03T07:44:16.224Z,12.80
2023-05-03T07:46:43.444Z,12.90
2023-05-03T07:49:10.509Z,13.00
2023-05-03T07:51:38.438Z,13.30
2023-05-03T07:54:05.721Z,13.60
2023-05-03T07:56:32.915Z,14.40
2023-05-03T07:59:09.373Z,15.70
2023-05-03T08:01:37.852Z,16.00
2023-05-03T08:04:05.307Z,16.40
2023-05-03T08:06:35.763Z,17.30
2023-05-03T08:09:04.670Z,18.80
2023-05-03T08:11:32.064Z,20.10
2023-05-03T08:13:59.034Z,21.00
2023-05-03T08:16:26.496Z,22.00
2023-05-03T08:18:53.461Z,23.30
2023-05-03T08:21:22.143Z,24.30
2023-05-03T08:23:49.162Z,25.20
2023-05-03T08:26:16.138Z,26.00
2023-05-03T08:28:43.073Z,26.50
2023-05-03T08:31:10.220Z,26.60
2023-05-03T08:33:37.607Z,25.50
2023-05-03T08:36:04.870Z,24.30
2023-05-03T08:38:32.726Z,23.30
2023-05-03T08:41:03.938Z,22.10
2023-05-03T08:43:33.794Z,20.40
2023-05-03T08:46:01.049Z,18.90
2023-05-03T08:48:30.577Z,18.10
2023-05-03T08:50:58.311Z,17.90
2023-05-03T09:00:48.400Z,20.10
2023-05-03T09:03:15.476Z,20.60
2023-05-03T09:05:44.410Z,20.20
2023-05-03T09:08:12.871Z,19.20
2023-05-03T09:10:40.784Z,18.30
2023-05-03T09:13:08.165Z,17.50
2023-05-03T09:15:35.581Z,16.70
2023-05-03T09:18:30.686Z,15.90
2023-05-03T09:20:59.096Z,15.20
2023-05-03T09:23:26.249Z,14.60
2023-05-03T09:25:53.638Z,14.10
2023-05-03T09:28:21.001Z,13.10
2023-05-03T09:30:48.852Z,11.20
2023-05-03T09:33:21.160Z,10.00
2023-05-03T09:36:08.556Z,9.50
2023-05-03T09:43:34.844Z,12.70
2023-05-03T09:46:12.510Z,13.20
2023-05-03T09:48:41.340Z,15.40
2023-05-03T09:51:09.304Z,17.90
2023-05-03T09:53:37.189Z,19.50
2023-05-03T09:56:05.020Z,20.60
2023-05-03T09:58:35.109Z,20.70
2023-05-03T10:01:02.461Z,21.00
2023-05-03T10:03:47.670Z,20.70
2023-05-03T10:06:35.226Z,21.10
2023-05-03T10:09:22.130Z,20.10
2023-05-03T10:11:53.279Z,19.30
2023-05-03T10:14:23.853Z,18.40
2023-05-03T10:16:53.853Z,17.40
2023-05-03T10:19:27.950Z,16.60
2023-05-03T10:22:07.049Z,15.90
2023-05-03T10:27:02.176Z,14.80
2023-05-03T10:29:34.944Z,14.10
2023-05-03T10:32:02.972Z,13.50
2023-05-03T10:34:35.912Z,13.20
2023-05-03T10:37:07.734Z,13.00
2023-05-03T10:39:34.875Z,12.90
2023-05-03T10:42:08.098Z,12.80
2023-05-03T10:44:38.363Z,12.70
2023-05-03T10:47:15.282Z,12.70
2023-05-03T10:49:42.610Z,12.70
2023-05-03T10:52:28.514Z,12.60
2023-05-03T10:54:55.519Z,12.70
2023-05-03T10:57:27.600Z,12.90
2023-05-03T10:59:54.808Z,12.90
2023-05-03T11:02:24.802Z,12.80
2023-05-03T11:04:53.213Z,12.60
2023-05-03T11:07:21.689Z,12.60
2023-05-03T11:09:48.612Z,12.60
2023-05-03T11:12:16.058Z,12.60
2023-05-03T11:14:42.996Z,12.80
2023-05-03T11:17:09.965Z,13.00
2023-05-03T11:19:37.036Z,13.40
2023-05-03T11:22:04.339Z,13.90
2023-05-03T11:24:31.427Z,15.00
2023-05-03T11:26:58.642Z,16.70
2023-05-03T11:29:26.271Z,17.80
2023-05-03T11:31:53.664Z,17.80
2023-05-03T11:34:20.926Z,17.60
2023-05-03T11:36:49.429Z,17.40
2023-05-03T11:39:18.772Z,17.10
2023-05-03T11:42:01.361Z,16.90
2023-05-03T11:44:28.651Z,17.00
2023-05-03T11:46:56.033Z,16.90
2023-05-03T11:49:23.973Z,16.60
2023-05-03T11:51:54.404Z,16.10
2023-05-03T11:54:26.001Z,15.80
2023-05-03T11:56:58.164Z,15.30
2023-05-03T11:59:36.077Z,14.90
2023-05-03T12:02:04.927Z,14.50
2023-05-03T12:04:32.821Z,14.30
2023-05-03T12:07:00.820Z,14.30
2023-05-03T12:09:29.449Z,14.40
2023-05-03T12:11:58.903Z,14.40
2023-05-03T12:14:27.544Z,14.70
2023-05-03T12:16:56.974Z,14.90
2023-05-03T12:19:25.855Z,15.10
2023-05-03T12:22:09.247Z,15.60
2023-05-03T12:24:41.134Z,16.10
2023-05-03T12:27:08.837Z,16.10
2023-05-03T12:29:36.158Z,15.70
2023-05-03T12:32:04.872Z,15.30
2023-05-03T12:34:35.501Z,15.00
2023-05-03T12:37:05.599Z,14.70
2023-05-03T12:39:34.137Z,14.50
2023-05-03T12:44:35.153Z,14.10
2023-05-03T12:47:03.869Z,13.60
2023-05-03T12:49:31.631Z,13.00
2023-05-03T12:54:33.660Z,12.20
2023-05-03T12:57:08.236Z,12.10
2023-05-03T12:59:42.160Z,12.10
2023-05-03T13:04:57.901Z,12.30
2023-05-03T13:07:31.628Z,12.40
2023-05-03T13:12:30.962Z,12.50
2023-05-03T13:14:58.244Z,12.50
2023-05-03T13:17:26.396Z,12.50
2023-05-03T13:19:53.526Z,12.40
2023-05-03T13:22:20.859Z,12.10
2023-05-03T13:24:48.133Z,12.00
2023-05-03T13:27:16.268Z,12.10
2023-05-03T13:29:43.345Z,12.10
2023-05-03T13:32:10.719Z,12.10
2023-05-03T13:34:37.797Z,12.10
2023-05-03T13:37:05.007Z,12.10
2023-05-03T13:39:32.245Z,12.00
2023-05-03T13:41:59.312Z,11.80
2023-05-03T13:44:26.342Z,11.80
2023-05-03T13:46:53.944Z,11.80
2023-05-03T13:49:21.235Z,11.90
2023-05-03T13:51:48.578Z,12.00
2023-05-03T13:54:15.741Z,12.00
2023-05-03T13:56:43.175Z,12.00
2023-05-03T13:59:11.825Z,12.20
2023-05-03T14:01:39.171Z,12.30
2023-05-03T14:04:06.631Z,12.30
2023-05-03T14:06:34.320Z,12.50
2023-05-03T14:09:02.233Z,12.90
2023-05-03T14:11:30.418Z,13.20
2023-05-03T14:13:58.752Z,13.50
2023-05-03T14:18:57.256Z,13.60
2023-05-03T14:21:24.669Z,13.40
2023-05-03T14:23:51.605Z,13.30
2023-05-03T14:26:19.589Z,13.20
2023-05-03T14:28:47.228Z,13.00
2023-05-03T14:31:14.388Z,12.90
2023-05-03T14:33:41.414Z,12.70
2023-05-03T14:36:08.987Z,12.70
2023-05-03T14:38:36.200Z,12.70
2023-05-03T14:41:03.326Z,12.60
2023-05-03T14:43:31.581Z,12.40
2023-05-03T14:45:58.593Z,12.30
2023-05-03T14:48:26.263Z,12.30
2023-05-03T14:50:53.626Z,12.50
2023-05-03T14:53:21.948Z,12.50
2023-05-03T14:55:49.031Z,12.60
2023-05-03T14:58:16.122Z,12.60
2023-05-03T15:00:43.599Z,12.60
2023-05-03T15:03:12.272Z,12.60
2023-05-03T15:05:53.551Z,12.60
2023-05-03T15:08:40.517Z,12.60
2023-05-03T15:11:21.300Z,12.60
2023-05-03T15:14:08.613Z,12.70
2023-05-03T15:16:55.592Z,12.70
2023-05-03T15:19:35.699Z,12.70
2023-05-03T15:22:22.541Z,12.70
2023-05-03T15:25:02.643Z,12.70
2023-05-03T15:27:49.620Z,12.60
2023-05-03T15:30:29.704Z,12.60
2023-05-03T15:33:18.565Z,12.60
2023-05-03T15:35:58.635Z,12.60
2023-05-03T15:38:53.632Z,12.50
2023-05-03T15:41:47.596Z,12.50
2023-05-03T15:44:34.720Z,12.70
2023-05-03T15:47:14.576Z,12.60
2023-05-03T15:50:02.916Z,12.50
2023-05-03T15:52:43.629Z,12.40
2023-05-03T15:55:30.667Z,12.40
2023-05-03T15:58:13.594Z,12.40
2023-05-03T16:00:55.610Z,12.40
2023-05-03T16:03:42.581Z,12.40
2023-05-03T16:06:29.811Z,12.30
2023-05-03T16:09:09.690Z,12.20
2023-05-03T16:11:57.742Z,12.00
2023-05-03T16:14:37.608Z,12.00
2023-05-03T16:17:24.780Z,12.00
2023-05-03T16:20:04.998Z,12.00
2023-05-03T16:22:52.874Z,11.90
2023-05-03T16:25:33.609Z,11.90
2023-05-03T16:28:20.829Z,11.90
2023-05-03T16:31:00.624Z,11.90
2023-05-03T16:33:48.877Z,12.00
2023-05-03T16:36:28.713Z,11.90
2023-05-03T16:39:23.705Z,11.90
2023-05-03T16:42:10.700Z,12.00
2023-05-03T16:44:57.619Z,11.90
2023-05-03T16:47:44.793Z,11.90
2023-05-03T16:50:24.649Z,11.90
2023-05-03T16:53:11.712Z,11.80
2023-05-03T16:55:51.635Z,11.70
2023-05-03T16:58:38.786Z,11.60
2023-05-03T17:01:19.791Z,11.50
2023-05-03T17:04:07.020Z,11.40
2023-05-03T17:06:46.745Z,11.30
2023-05-03T17:09:33.747Z,11.30
2023-05-03T17:12:13.848Z,11.20
2023-05-03T17:15:00.741Z,11.20
2023-05-03T17:17:40.729Z,11.10
2023-05-03T17:20:27.787Z,11.10
2023-05-03T17:23:07.693Z,11.10
2023-05-03T17:25:54.773Z,11.00
2023-05-03T17:28:34.725Z,11.00
2023-05-03T17:31:21.884Z,10.90
2023-05-03T17:34:01.672Z,10.90
2023-05-03T17:36:49.099Z,10.90
2023-05-03T17:39:42.659Z,10.80
2023-05-03T17:42:33.371Z,10.80
2023-05-03T17:45:13.669Z,10.70
2023-05-03T17:48:07.826Z,10.60
2023-05-03T17:51:04.068Z,10.60
2023-05-03T17:53:43.727Z,10.50
2023-05-03T17:56:30.840Z,10.50
2023-05-03T17:59:10.715Z,10.40
2023-05-03T18:01:57.936Z,10.40
2023-05-03T18:04:37.711Z,10.40
2023-05-03T18:07:24.915Z,10.40
2023-05-03T18:10:05.901Z,10.40
2023-05-03T18:12:52.914Z,10.30
2023-05-03T18:15:32.734Z,10.30
2023-05-03T18:18:19.978Z,10.40
2023-05-03T18:21:06.722Z,10.30
2023-05-03T18:23:53.939Z,10.20
2023-05-03T18:26:33.711Z,10.20
2023-05-03T18:29:20.839Z,10.10
2023-05-03T18:32:01.986Z,10.10
2023-05-03T18:34:42.122Z,10.00
2023-05-03T18:37:28.729Z,10.00
2023-05-03T18:40:16.406Z,9.90
2023-05-03T18:42:55.749Z,9.90
2023-05-03T18:45:45.871Z,9.90
2023-05-03T18:48:25.755Z,9.90
2023-05-03T18:51:12.905Z,9.90
2023-05-03T18:53:52.771Z,9.90
2023-05-03T18:56:46.755Z,9.90
2023-05-03T18:59:40.334Z,9.90
2023-05-03T19:02:25.773Z,9.90
2023-05-03T19:05:14.175Z,9.80
2023-05-03T19:07:54.800Z,9.70
2023-05-03T19:10:41.970Z,9.60
2023-05-03T19:13:22.807Z,9.60
2023-05-03T19:16:09.920Z,9.60
2023-05-03T19:18:50.762Z,9.50
2023-05-03T19:21:42.183Z,9.50
2023-05-03T19:24:22.775Z,9.50
2023-05-03T19:27:10.100Z,9.40
2023-05-03T19:29:49.782Z,9.40
2023-05-03T19:32:39.223Z,9.40
2023-05-03T19:35:18.800Z,9.50
2023-05-03T19:38:05.940Z,9.60
2023-05-03T19:41:04.823Z,9.70
2023-05-03T19:43:45.983Z,9.80
2023-05-03T19:46:32.845Z,9.70
2023-05-03T19:49:19.898Z,9.70
2023-05-03T19:52:02.053Z,9.60
2023-05-03T19:54:48.821Z,9.50
2023-05-03T19:57:29.141Z,9.50
2023-05-03T20:00:15.883Z,9.50
2023-05-03T20:03:03.015Z,9.50
2023-05-03T20:05:42.900Z,9.60
2023-05-03T20:08:29.979Z,9.60
2023-05-03T20:11:10.885Z,9.60
2023-05-03T20:13:57.850Z,9.60
2023-05-03T20:16:46.037Z,9.60
2023-05-03T20:19:32.942Z,9.60
2023-05-03T20:22:19.859Z,9.60
2023-05-03T20:25:07.260Z,9.60
2023-05-03T20:27:47.879Z,9.60
2023-05-03T20:30:35.093Z,9.60
2023-05-03T20:33:16.863Z,9.60
2023-05-03T20:36:04.022Z,9.60
2023-05-03T20:38:43.875Z,9.60
2023-05-03T20:41:32.436Z,9.50
2023-05-03T20:44:11.902Z,9.50
2023-05-03T20:46:58.965Z,9.40
2023-05-03T20:49:38.908Z,9.40
2023-05-03T20:52:26.050Z,9.30
2023-05-03T20:55:06.042Z,9.20
2023-05-03T20:57:46.306Z,9.10
2023-05-03T21:00:32.875Z,9.00
2023-05-03T21:03:27.203Z,9.00
2023-05-03T21:06:14.186Z,8.90
2023-05-03T21:08:53.931Z,8.90
2023-05-03T21:11:42.496Z,8.80
2023-05-03T21:14:22.976Z,8.80
2023-05-03T21:17:12.264Z,8.70
2023-05-03T21:19:52.930Z,8.70
2023-05-03T21:22:40.012Z,8.60
2023-05-03T21:25:19.943Z,8.50
2023-05-03T21:28:07.146Z,8.50
2023-05-03T21:30:48.964Z,8.40
2023-05-03T21:33:36.097Z,8.40
2023-05-03T21:36:15.960Z,8.30
2023-05-03T21:39:09.931Z,8.20
2023-05-03T21:41:56.965Z,8.20
2023-05-03T21:44:37.026Z,8.10
2023-05-03T21:47:23.993Z,8.00
2023-05-03T21:50:06.007Z,8.00
2023-05-03T21:52:52.947Z,8.00
2023-05-03T21:55:33.101Z,7.90
2023-05-03T21:58:20.040Z,7.90
2023-05-03T22:01:00.108Z,7.80
2023-05-03T22:03:47.042Z,7.80
2023-05-03T22:06:33.948Z,7.80
2023-05-03T22:09:14.279Z,7.80
2023-05-03T22:12:05.921Z,7.70
2023-05-03T22:14:59.137Z,7.70
2023-05-03T22:17:40.059Z,7.60
2023-05-03T22:20:27.071Z,7.60
2023-05-03T22:23:07.030Z,7.50
2023-05-03T22:25:54.446Z,7.50
2023-05-03T22:28:33.998Z,7.40
2023-05-03T22:31:21.172Z,7.40
2023-05-03T22:34:01.054Z,7.40
2023-05-03T22:36:41.287Z,7.40
2023-05-03T22:39:28.007Z,7.40
2023-05-03T22:42:15.242Z,7.30
2023-05-03T22:44:56.360Z,7.30
2023-05-03T22:47:44.276Z,7.30
2023-05-03T22:50:24.015Z,7.30
2023-05-03T22:53:11.251Z,7.30
2023-05-03T22:55:51.124Z,7.30
2023-05-03T22:58:38.116Z,7.20
2023-05-03T23:01:18.064Z,7.20
2023-05-03T23:04:05.289Z,7.20
2023-05-03T23:06:45.012Z,7.20
2023-05-03T23:09:39.139Z,7.10
2023-05-03T23:12:26.133Z,7.10
2023-05-03T23:15:06.051Z,7.10
2023-05-03T23:17:53.582Z,7.10
2023-05-03T23:20:33.051Z,7.10
2023-05-03T23:23:20.720Z,7.10
2023-05-03T23:26:01.109Z,7.10
2023-05-03T23:28:48.789Z,7.00
2023-05-03T23:31:31.211Z,7.00
2023-05-03T23:34:18.743Z,7.00
2023-05-03T23:36:58.151Z,6.90
2023-05-03T23:39:56.083Z,6.90
2023-05-03T23:42:43.086Z,6.90
2023-05-03T23:45:23.198Z,6.90
2023-05-03T23:48:10.234Z,6.90
2023-05-03T23:50:50.153Z,6.80
2023-05-03T23:53:37.111Z,6.80
2023-05-03T23:56:17.193Z,6.80
2023-05-03T23:59:04.097Z,6.80
